sensor_id;sensor_type;location;lat;lon;timestamp;P1;durP1;ratioP1;P2;durP2;ratioP2
23712;SDS011;12035;49.978;8.298;2023-03-01T00:03:57;10.75;;;6.47;;
23712;SDS011;12035;49.978;8.298;2023-03-01T00:08:56;10.88;;;6.80;;
23712;SDS011;12035;49.978;8.298;2023-03-01T00:13:55;14.45;;;7.50;;
23712;SDS011;12035;49.978;8.298;2023-03-01T00:18:55;12.00;;;7.10;;
23712;SDS011;12035;49.978;8.298;2023-03-01T00:23:55;13.65;;;7.95;;
23712;SDS011;12035;49.978;8.298;2023-03-01T00:28:53;11.98;;;7.00;;
23712;SDS011;12035;49.978;8.298;2023-03-01T00:33:52;14.02;;;7.63;;
23712;SDS011;12035;49.978;8.298;2023-03-01T00:38:52;12.90;;;7.53;;
23712;SDS011;12035;49.978;8.298;2023-03-01T00:43:51;11.32;;;6.97;;
23712;SDS011;12035;49.978;8.298;2023-03-01T00:48:49;11.57;;;7.13;;
23712;SDS011;12035;49.978;8.298;2023-03-01T00:53:51;11.45;;;7.35;;
23712;SDS011;12035;49.978;8.298;2023-03-01T01:08:51;11.48;;;6.47;;
23712;SDS011;12035;49.978;8.298;2023-03-01T01:13:51;12.63;;;7.20;;
23712;SDS011;12035;49.978;8.298;2023-03-01T01:18:49;12.38;;;7.40;;
23712;SDS011;12035;49.978;8.298;2023-03-01T01:23:47;11.05;;;6.93;;
23712;SDS011;12035;49.978;8.298;2023-03-01T01:28:45;12.30;;;6.90;;
23712;SDS011;12035;49.978;8.298;2023-03-01T01:33:46;14.07;;;7.53;;
23712;SDS011;12035;49.978;8.298;2023-03-01T01:38:44;12.93;;;7.85;;
23712;SDS011;12035;49.978;8.298;2023-03-01T01:43:42;12.65;;;7.38;;
23712;SDS011;12035;49.978;8.298;2023-03-01T01:48:42;12.70;;;7.85;;
23712;SDS011;12035;49.978;8.298;2023-03-01T01:53:45;13.85;;;7.68;;
23712;SDS011;12035;49.978;8.298;2023-03-01T01:58:46;13.27;;;7.55;;
23712;SDS011;12035;49.978;8.298;2023-03-01T02:03:44;13.07;;;7.75;;
23712;SDS011;12035;49.978;8.298;2023-03-01T02:08:44;15.00;;;7.82;;
23712;SDS011;12035;49.978;8.298;2023-03-01T02:13:45;14.82;;;7.65;;
23712;SDS011;12035;49.978;8.298;2023-03-01T02:18:44;17.92;;;8.60;;
23712;SDS011;12035;49.978;8.298;2023-03-01T02:23:44;16.92;;;9.20;;
23712;SDS011;12035;49.978;8.298;2023-03-01T02:28:43;14.75;;;7.88;;
23712;SDS011;12035;49.978;8.298;2023-03-01T02:33:42;13.18;;;7.88;;
23712;SDS011;12035;49.978;8.298;2023-03-01T02:38:43;16.65;;;8.80;;
23712;SDS011;12035;49.978;8.298;2023-03-01T02:43:41;14.32;;;7.82;;
23712;SDS011;12035;49.978;8.298;2023-03-01T02:48:43;13.63;;;8.75;;
23712;SDS011;12035;49.978;8.298;2023-03-01T02:53:45;13.40;;;8.35;;
23712;SDS011;12035;49.978;8.298;2023-03-01T02:58:54;17.20;;;9.10;;
23712;SDS011;12035;49.978;8.298;2023-03-01T03:03:55;14.98;;;9.00;;
23712;SDS011;12035;49.978;8.298;2023-03-01T03:08:53;14.90;;;9.02;;
23712;SDS011;12035;49.978;8.298;2023-03-01T03:13:51;14.00;;;8.25;;
23712;SDS011;12035;49.978;8.298;2023-03-01T03:18:50;15.82;;;8.45;;
23712;SDS011;12035;49.978;8.298;2023-03-01T03:23:47;15.98;;;8.95;;
23712;SDS011;12035;49.978;8.298;2023-03-01T03:28:45;14.93;;;8.70;;
23712;SDS011;12035;49.978;8.298;2023-03-01T03:33:43;16.05;;;8.98;;
23712;SDS011;12035;49.978;8.298;2023-03-01T03:38:43;13.70;;;8.20;;
23712;SDS011;12035;49.978;8.298;2023-03-01T03:43:42;14.70;;;8.80;;
23712;SDS011;12035;49.978;8.298;2023-03-01T03:48:41;15.27;;;9.32;;
23712;SDS011;12035;49.978;8.298;2023-03-01T03:53:42;17.98;;;9.30;;
23712;SDS011;12035;49.978;8.298;2023-03-01T03:58:43;16.13;;;9.07;;
23712;SDS011;12035;49.978;8.298;2023-03-01T04:03:41;14.50;;;8.85;;
23712;SDS011;12035;49.978;8.298;2023-03-01T04:08:41;16.52;;;8.73;;
23712;SDS011;12035;49.978;8.298;2023-03-01T04:13:41;15.85;;;9.63;;
23712;SDS011;12035;49.978;8.298;2023-03-01T04:18:38;16.20;;;9.10;;
23712;SDS011;12035;49.978;8.298;2023-03-01T04:23:36;15.30;;;8.88;;
23712;SDS011;12035;49.978;8.298;2023-03-01T04:28:40;16.92;;;9.95;;
23712;SDS011;12035;49.978;8.298;2023-03-01T04:33:40;14.88;;;9.25;;
23712;SDS011;12035;49.978;8.298;2023-03-01T04:38:39;16.45;;;9.43;;
23712;SDS011;12035;49.978;8.298;2023-03-01T04:43:43;14.88;;;9.27;;
23712;SDS011;12035;49.978;8.298;2023-03-01T04:48:43;15.82;;;9.18;;
23712;SDS011;12035;49.978;8.298;2023-03-01T04:53:42;15.63;;;9.48;;
23712;SDS011;12035;49.978;8.298;2023-03-01T04:58:41;14.55;;;9.43;;
23712;SDS011;12035;49.978;8.298;2023-03-01T05:03:41;18.88;;;9.85;;
23712;SDS011;12035;49.978;8.298;2023-03-01T05:08:57;18.73;;;10.18;;
23712;SDS011;12035;49.978;8.298;2023-03-01T05:13:56;18.33;;;9.70;;
23712;SDS011;12035;49.978;8.298;2023-03-01T05:18:55;18.65;;;10.60;;
23712;SDS011;12035;49.978;8.298;2023-03-01T05:23:52;19.00;;;9.57;;
23712;SDS011;12035;49.978;8.298;2023-03-01T05:28:51;18.33;;;9.20;;
23712;SDS011;12035;49.978;8.298;2023-03-01T05:33:53;15.60;;;9.02;;
23712;SDS011;12035;49.978;8.298;2023-03-01T05:38:50;16.50;;;9.60;;
23712;SDS011;12035;49.978;8.298;2023-03-01T05:43:49;14.98;;;9.20;;
23712;SDS011;12035;49.978;8.298;2023-03-01T05:48:47;15.48;;;9.10;;
23712;SDS011;12035;49.978;8.298;2023-03-01T05:53:46;17.15;;;8.55;;
23712;SDS011;12035;49.978;8.298;2023-03-01T05:58:47;18.02;;;10.52;;
23712;SDS011;12035;49.978;8.298;2023-03-01T06:03:45;14.68;;;9.40;;
23712;SDS011;12035;49.978;8.298;2023-03-01T06:08:42;15.75;;;9.25;;
23712;SDS011;12035;49.978;8.298;2023-03-01T06:13:42;15.88;;;9.30;;
23712;SDS011;12035;49.978;8.298;2023-03-01T06:18:43;15.65;;;9.68;;
23712;SDS011;12035;49.978;8.298;2023-03-01T06:23:40;18.15;;;9.35;;
23712;SDS011;12035;49.978;8.298;2023-03-01T06:28:37;17.88;;;10.48;;
23712;SDS011;12035;49.978;8.298;2023-03-01T06:33:36;18.13;;;9.82;;
23712;SDS011;12035;49.978;8.298;2023-03-01T06:38:34;15.55;;;9.60;;
23712;SDS011;12035;49.978;8.298;2023-03-01T06:43:32;13.77;;;8.90;;
23712;SDS011;12035;49.978;8.298;2023-03-01T06:48:29;13.85;;;8.05;;
23712;SDS011;12035;49.978;8.298;2023-03-01T06:53:28;17.10;;;10.25;;
23712;SDS011;12035;49.978;8.298;2023-03-01T06:58:25;14.98;;;9.20;;
23712;SDS011;12035;49.978;8.298;2023-03-01T07:03:23;17.92;;;10.40;;
23712;SDS011;12035;49.978;8.298;2023-03-01T07:08:21;15.18;;;9.02;;
23712;SDS011;12035;49.978;8.298;2023-03-01T07:13:20;18.25;;;10.63;;
23712;SDS011;12035;49.978;8.298;2023-03-01T07:18:17;15.52;;;9.25;;
23712;SDS011;12035;49.978;8.298;2023-03-01T07:23:14;16.45;;;9.38;;
23712;SDS011;12035;49.978;8.298;2023-03-01T07:28:12;14.27;;;9.27;;
23712;SDS011;12035;49.978;8.298;2023-03-01T07:33:11;15.65;;;9.70;;
23712;SDS011;12035;49.978;8.298;2023-03-01T07:38:08;17.25;;;9.60;;
23712;SDS011;12035;49.978;8.298;2023-03-01T07:43:07;14.70;;;9.20;;
23712;SDS011;12035;49.978;8.298;2023-03-01T07:48:05;16.13;;;9.02;;
23712;SDS011;12035;49.978;8.298;2023-03-01T07:53:04;17.17;;;10.13;;
23712;SDS011;12035;49.978;8.298;2023-03-01T07:58:02;14.82;;;8.60;;
23712;SDS011;12035;49.978;8.298;2023-03-01T08:02:59;15.52;;;8.95;;
23712;SDS011;12035;49.978;8.298;2023-03-01T08:07:58;16.13;;;8.65;;
23712;SDS011;12035;49.978;8.298;2023-03-01T08:12:59;15.65;;;9.00;;
23712;SDS011;12035;49.978;8.298;2023-03-01T08:17:56;15.02;;;9.35;;
23712;SDS011;12035;49.978;8.298;2023-03-01T08:22:57;16.40;;;9.32;;
23712;SDS011;12035;49.978;8.298;2023-03-01T08:27:55;15.52;;;9.85;;
23712;SDS011;12035;49.978;8.298;2023-03-01T08:33:10;17.42;;;9.80;;
23712;SDS011;12035;49.978;8.298;2023-03-01T08:38:08;15.35;;;9.57;;
23712;SDS011;12035;49.978;8.298;2023-03-01T08:43:07;16.17;;;9.20;;
23712;SDS011;12035;49.978;8.298;2023-03-01T08:48:04;18.88;;;9.57;;
23712;SDS011;12035;49.978;8.298;2023-03-01T08:53:02;15.50;;;9.48;;
23712;SDS011;12035;49.978;8.298;2023-03-01T08:57:59;14.77;;;8.40;;
23712;SDS011;12035;49.978;8.298;2023-03-01T09:02:58;16.88;;;10.10;;
23712;SDS011;12035;49.978;8.298;2023-03-01T09:07:56;15.25;;;8.93;;
23712;SDS011;12035;49.978;8.298;2023-03-01T09:12:54;14.23;;;8.55;;
23712;SDS011;12035;49.978;8.298;2023-03-01T09:17:51;14.70;;;8.85;;
23712;SDS011;12035;49.978;8.298;2023-03-01T09:22:50;15.98;;;9.30;;
23712;SDS011;12035;49.978;8.298;2023-03-01T09:27:49;16.70;;;9.40;;
23712;SDS011;12035;49.978;8.298;2023-03-01T09:32:47;17.02;;;10.20;;
23712;SDS011;12035;49.978;8.298;2023-03-01T09:37:45;17.45;;;10.02;;
23712;SDS011;12035;49.978;8.298;2023-03-01T09:42:51;16.98;;;10.00;;
23712;SDS011;12035;49.978;8.298;2023-03-01T09:47:53;18.98;;;10.10;;
23712;SDS011;12035;49.978;8.298;2023-03-01T09:53:00;15.40;;;9.77;;
23712;SDS011;12035;49.978;8.298;2023-03-01T09:58:04;15.95;;;10.43;;
23712;SDS011;12035;49.978;8.298;2023-03-01T10:03:26;13.90;;;9.10;;
23712;SDS011;12035;49.978;8.298;2023-03-01T10:08:33;15.38;;;10.15;;
23712;SDS011;12035;49.978;8.298;2023-03-01T10:13:42;15.43;;;10.00;;
23712;SDS011;12035;49.978;8.298;2023-03-01T10:18:49;17.35;;;10.27;;
23712;SDS011;12035;49.978;8.298;2023-03-01T10:23:50;18.02;;;10.10;;
23712;SDS011;12035;49.978;8.298;2023-03-01T10:28:53;16.85;;;11.18;;
23712;SDS011;12035;49.978;8.298;2023-03-01T10:33:58;18.80;;;10.95;;
23712;SDS011;12035;49.978;8.298;2023-03-01T10:38:56;17.25;;;10.45;;
23712;SDS011;12035;49.978;8.298;2023-03-01T10:43:56;17.27;;;10.82;;
23712;SDS011;12035;49.978;8.298;2023-03-01T10:49:12;17.38;;;11.27;;
23712;SDS011;12035;49.978;8.298;2023-03-01T10:54:16;15.98;;;10.55;;
23712;SDS011;12035;49.978;8.298;2023-03-01T10:59:27;18.42;;;11.00;;
23712;SDS011;12035;49.978;8.298;2023-03-01T11:04:27;18.80;;;10.00;;
23712;SDS011;12035;49.978;8.298;2023-03-01T11:09:25;19.17;;;10.07;;
23712;SDS011;12035;49.978;8.298;2023-03-01T11:14:23;18.73;;;10.38;;
23712;SDS011;12035;49.978;8.298;2023-03-01T11:19:23;20.17;;;10.45;;
23712;SDS011;12035;49.978;8.298;2023-03-01T11:24:21;20.65;;;11.05;;
23712;SDS011;12035;49.978;8.298;2023-03-01T11:29:30;17.05;;;10.75;;
23712;SDS011;12035;49.978;8.298;2023-03-01T11:34:36;18.73;;;11.35;;
23712;SDS011;12035;49.978;8.298;2023-03-01T11:39:39;15.77;;;10.18;;
23712;SDS011;12035;49.978;8.298;2023-03-01T11:44:45;17.40;;;10.27;;
23712;SDS011;12035;49.978;8.298;2023-03-01T11:49:55;15.15;;;9.80;;
23712;SDS011;12035;49.978;8.298;2023-03-01T11:55:16;14.50;;;9.15;;
23712;SDS011;12035;49.978;8.298;2023-03-01T12:00:39;15.70;;;9.68;;
23712;SDS011;12035;49.978;8.298;2023-03-01T12:06:08;16.50;;;9.65;;
23712;SDS011;12035;49.978;8.298;2023-03-01T12:11:25;15.80;;;9.43;;
23712;SDS011;12035;49.978;8.298;2023-03-01T12:16:38;14.10;;;9.23;;
23712;SDS011;12035;49.978;8.298;2023-03-01T12:22:09;14.68;;;8.70;;
23712;SDS011;12035;49.978;8.298;2023-03-01T12:27:29;16.00;;;8.70;;
23712;SDS011;12035;49.978;8.298;2023-03-01T12:33:05;16.50;;;8.95;;
23712;SDS011;12035;49.978;8.298;2023-03-01T12:38:20;18.65;;;8.45;;
23712;SDS011;12035;49.978;8.298;2023-03-01T12:43:34;13.75;;;8.25;;
23712;SDS011;12035;49.978;8.298;2023-03-01T12:48:49;13.35;;;7.80;;
23712;SDS011;12035;49.978;8.298;2023-03-01T12:53:55;13.10;;;8.10;;
23712;SDS011;12035;49.978;8.298;2023-03-01T12:58:59;12.95;;;8.60;;
23712;SDS011;12035;49.978;8.298;2023-03-01T13:04:12;14.93;;;7.80;;
23712;SDS011;12035;49.978;8.298;2023-03-01T13:09:19;12.52;;;7.75;;
23712;SDS011;12035;49.978;8.298;2023-03-01T13:14:35;11.75;;;7.43;;
23712;SDS011;12035;49.978;8.298;2023-03-01T13:19:43;13.20;;;7.95;;
23712;SDS011;12035;49.978;8.298;2023-03-01T13:25:10;12.17;;;7.60;;
23712;SDS011;12035;49.978;8.298;2023-03-01T13:35:44;11.10;;;7.00;;
23712;SDS011;12035;49.978;8.298;2023-03-01T13:40:57;12.02;;;7.22;;
23712;SDS011;12035;49.978;8.298;2023-03-01T13:45:56;9.73;;;6.38;;
23712;SDS011;12035;49.978;8.298;2023-03-01T13:50:57;12.98;;;7.10;;
23712;SDS011;12035;49.978;8.298;2023-03-01T13:55:58;12.65;;;7.30;;
23712;SDS011;12035;49.978;8.298;2023-03-01T14:01:00;11.27;;;6.30;;
23712;SDS011;12035;49.978;8.298;2023-03-01T14:06:02;11.50;;;7.00;;
23712;SDS011;12035;49.978;8.298;2023-03-01T14:16:32;9.52;;;5.88;;
23712;SDS011;12035;49.978;8.298;2023-03-01T14:21:43;10.10;;;5.95;;
23712;SDS011;12035;49.978;8.298;2023-03-01T14:26:41;11.02;;;6.72;;
23712;SDS011;12035;49.978;8.298;2023-03-01T14:31:40;9.13;;;5.95;;
23712;SDS011;12035;49.978;8.298;2023-03-01T14:36:38;10.02;;;6.35;;
23712;SDS011;12035;49.978;8.298;2023-03-01T14:41:37;13.70;;;6.53;;
23712;SDS011;12035;49.978;8.298;2023-03-01T14:46:36;11.38;;;5.53;;
23712;SDS011;12035;49.978;8.298;2023-03-01T14:51:36;8.63;;;5.85;;
23712;SDS011;12035;49.978;8.298;2023-03-01T14:56:44;11.48;;;7.00;;
23712;SDS011;12035;49.978;8.298;2023-03-01T15:01:42;14.50;;;6.85;;
23712;SDS011;12035;49.978;8.298;2023-03-01T15:06:42;10.48;;;6.82;;
23712;SDS011;12035;49.978;8.298;2023-03-01T15:11:40;10.98;;;6.03;;
23712;SDS011;12035;49.978;8.298;2023-03-01T15:16:42;12.65;;;6.85;;
23712;SDS011;12035;49.978;8.298;2023-03-01T15:21:39;14.50;;;6.57;;
23712;SDS011;12035;49.978;8.298;2023-03-01T15:26:42;13.18;;;6.53;;
23712;SDS011;12035;49.978;8.298;2023-03-01T15:31:52;11.63;;;6.22;;
23712;SDS011;12035;49.978;8.298;2023-03-01T15:36:53;12.13;;;6.35;;
23712;SDS011;12035;49.978;8.298;2023-03-01T15:41:53;10.57;;;6.43;;
23712;SDS011;12035;49.978;8.298;2023-03-01T15:46:52;12.57;;;6.35;;
23712;SDS011;12035;49.978;8.298;2023-03-01T15:51:49;14.30;;;5.82;;
23712;SDS011;12035;49.978;8.298;2023-03-01T15:56:48;10.40;;;6.10;;
23712;SDS011;12035;49.978;8.298;2023-03-01T16:01:46;9.48;;;5.47;;
23712;SDS011;12035;49.978;8.298;2023-03-01T16:06:45;9.02;;;5.43;;
23712;SDS011;12035;49.978;8.298;2023-03-01T16:11:42;8.52;;;5.35;;
23712;SDS011;12035;49.978;8.298;2023-03-01T16:16:39;10.27;;;5.35;;
23712;SDS011;12035;49.978;8.298;2023-03-01T16:21:37;12.77;;;6.47;;
23712;SDS011;12035;49.978;8.298;2023-03-01T16:26:36;9.88;;;5.80;;
23712;SDS011;12035;49.978;8.298;2023-03-01T16:31:34;10.00;;;6.20;;
23712;SDS011;12035;49.978;8.298;2023-03-01T16:36:31;11.07;;;5.95;;
23712;SDS011;12035;49.978;8.298;2023-03-01T16:41:28;11.85;;;6.50;;
23712;SDS011;12035;49.978;8.298;2023-03-01T16:46:27;12.20;;;6.32;;
23712;SDS011;12035;49.978;8.298;2023-03-01T16:51:25;12.00;;;6.10;;
23712;SDS011;12035;49.978;8.298;2023-03-01T16:56:24;10.82;;;6.05;;
23712;SDS011;12035;49.978;8.298;2023-03-01T17:01:24;12.88;;;6.63;;
23712;SDS011;12035;49.978;8.298;2023-03-01T17:06:23;11.75;;;6.32;;
23712;SDS011;12035;49.978;8.298;2023-03-01T17:11:21;12.50;;;6.45;;
23712;SDS011;12035;49.978;8.298;2023-03-01T17:16:18;12.77;;;6.80;;
23712;SDS011;12035;49.978;8.298;2023-03-01T17:21:16;11.90;;;6.70;;
23712;SDS011;12035;49.978;8.298;2023-03-01T17:26:16;12.45;;;6.68;;
23712;SDS011;12035;49.978;8.298;2023-03-01T17:31:13;10.35;;;6.45;;
23712;SDS011;12035;49.978;8.298;2023-03-01T17:36:10;12.65;;;6.70;;
23712;SDS011;12035;49.978;8.298;2023-03-01T17:41:07;14.95;;;6.95;;
23712;SDS011;12035;49.978;8.298;2023-03-01T17:46:07;13.75;;;6.90;;
23712;SDS011;12035;49.978;8.298;2023-03-01T17:51:05;12.63;;;6.90;;
23712;SDS011;12035;49.978;8.298;2023-03-01T17:56:05;13.75;;;6.47;;
23712;SDS011;12035;49.978;8.298;2023-03-01T18:01:12;13.38;;;7.28;;
23712;SDS011;12035;49.978;8.298;2023-03-01T18:06:12;13.60;;;6.95;;
23712;SDS011;12035;49.978;8.298;2023-03-01T18:11:11;12.25;;;6.97;;
23712;SDS011;12035;49.978;8.298;2023-03-01T18:16:13;11.07;;;6.43;;
23712;SDS011;12035;49.978;8.298;2023-03-01T18:21:12;12.20;;;7.00;;
23712;SDS011;12035;49.978;8.298;2023-03-01T18:26:11;12.25;;;6.43;;
23712;SDS011;12035;49.978;8.298;2023-03-01T18:31:13;12.95;;;7.47;;
23712;SDS011;12035;49.978;8.298;2023-03-01T18:36:15;12.63;;;6.78;;
23712;SDS011;12035;49.978;8.298;2023-03-01T18:41:15;12.88;;;7.38;;
23712;SDS011;12035;49.978;8.298;2023-03-01T18:46:15;12.82;;;6.85;;
23712;SDS011;12035;49.978;8.298;2023-03-01T18:51:14;13.07;;;6.57;;
23712;SDS011;12035;49.978;8.298;2023-03-01T18:56:14;15.48;;;7.07;;
23712;SDS011;12035;49.978;8.298;2023-03-01T19:01:12;12.88;;;7.43;;
23712;SDS011;12035;49.978;8.298;2023-03-01T19:06:17;14.60;;;7.88;;
23712;SDS011;12035;49.978;8.298;2023-03-01T19:11:15;16.75;;;8.07;;
23712;SDS011;12035;49.978;8.298;2023-03-01T19:16:13;14.55;;;7.75;;
23712;SDS011;12035;49.978;8.298;2023-03-01T19:21:16;12.80;;;7.97;;
23712;SDS011;12035;49.978;8.298;2023-03-01T19:26:17;14.13;;;7.72;;
23712;SDS011;12035;49.978;8.298;2023-03-01T19:31:18;13.05;;;7.55;;
23712;SDS011;12035;49.978;8.298;2023-03-01T19:36:20;12.48;;;7.50;;
23712;SDS011;12035;49.978;8.298;2023-03-01T19:41:27;13.93;;;7.90;;
23712;SDS011;12035;49.978;8.298;2023-03-01T19:46:26;12.02;;;6.95;;
23712;SDS011;12035;49.978;8.298;2023-03-01T19:51:24;13.43;;;7.30;;
23712;SDS011;12035;49.978;8.298;2023-03-01T19:56:22;14.18;;;7.63;;
23712;SDS011;12035;49.978;8.298;2023-03-01T20:01:20;11.88;;;6.70;;
23712;SDS011;12035;49.978;8.298;2023-03-01T20:06:20;14.82;;;7.65;;
23712;SDS011;12035;49.978;8.298;2023-03-01T20:11:18;11.93;;;7.28;;
23712;SDS011;12035;49.978;8.298;2023-03-01T20:16:17;12.30;;;7.07;;
23712;SDS011;12035;49.978;8.298;2023-03-01T20:21:16;13.75;;;7.38;;
23712;SDS011;12035;49.978;8.298;2023-03-01T20:26:16;13.70;;;7.22;;
23712;SDS011;12035;49.978;8.298;2023-03-01T20:31:15;18.73;;;7.47;;
23712;SDS011;12035;49.978;8.298;2023-03-01T20:36:14;12.82;;;7.45;;
23712;SDS011;12035;49.978;8.298;2023-03-01T20:41:11;12.35;;;7.43;;
23712;SDS011;12035;49.978;8.298;2023-03-01T20:46:12;14.55;;;8.68;;
23712;SDS011;12035;49.978;8.298;2023-03-01T20:51:10;14.75;;;8.23;;
23712;SDS011;12035;49.978;8.298;2023-03-01T20:56:09;13.18;;;7.82;;
23712;SDS011;12035;49.978;8.298;2023-03-01T21:01:09;15.23;;;7.93;;
23712;SDS011;12035;49.978;8.298;2023-03-01T21:06:11;15.82;;;7.72;;
23712;SDS011;12035;49.978;8.298;2023-03-01T21:11:08;12.23;;;7.70;;
23712;SDS011;12035;49.978;8.298;2023-03-01T21:16:07;13.00;;;7.32;;
23712;SDS011;12035;49.978;8.298;2023-03-01T21:21:11;15.18;;;7.60;;
23712;SDS011;12035;49.978;8.298;2023-03-01T21:26:12;12.00;;;6.70;;
23712;SDS011;12035;49.978;8.298;2023-03-01T21:31:11;15.80;;;7.82;;
23712;SDS011;12035;49.978;8.298;2023-03-01T21:36:12;12.63;;;7.53;;
23712;SDS011;12035;49.978;8.298;2023-03-01T21:41:11;15.70;;;7.75;;
23712;SDS011;12035;49.978;8.298;2023-03-01T21:46:11;13.60;;;7.82;;
23712;SDS011;12035;49.978;8.298;2023-03-01T21:51:13;14.32;;;8.13;;
23712;SDS011;12035;49.978;8.298;2023-03-01T21:56:13;13.02;;;7.97;;
23712;SDS011;12035;49.978;8.298;2023-03-01T22:01:14;16.15;;;8.15;;
23712;SDS011;12035;49.978;8.298;2023-03-01T22:06:14;13.48;;;7.75;;
23712;SDS011;12035;49.978;8.298;2023-03-01T22:11:13;14.00;;;7.70;;
23712;SDS011;12035;49.978;8.298;2023-03-01T22:16:11;13.95;;;8.55;;
23712;SDS011;12035;49.978;8.298;2023-03-01T22:21:09;13.75;;;7.95;;
23712;SDS011;12035;49.978;8.298;2023-03-01T22:26:20;14.57;;;8.35;;
23712;SDS011;12035;49.978;8.298;2023-03-01T22:31:20;15.05;;;7.43;;
23712;SDS011;12035;49.978;8.298;2023-03-01T22:36:19;14.10;;;8.10;;
23712;SDS011;12035;49.978;8.298;2023-03-01T22:41:18;12.40;;;7.50;;
23712;SDS011;12035;49.978;8.298;2023-03-01T22:46:15;14.90;;;8.48;;
23712;SDS011;12035;49.978;8.298;2023-03-01T22:51:14;17.15;;;8.00;;
23712;SDS011;12035;49.978;8.298;2023-03-01T22:56:13;12.95;;;7.10;;
23712;SDS011;12035;49.978;8.298;2023-03-01T23:01:16;17.80;;;8.45;;
23712;SDS011;12035;49.978;8.298;2023-03-01T23:06:16;16.60;;;8.55;;
23712;SDS011;12035;49.978;8.298;2023-03-01T23:11:18;13.18;;;7.68;;
23712;SDS011;12035;49.978;8.298;2023-03-01T23:16:17;16.80;;;8.75;;
23712;SDS011;12035;49.978;8.298;2023-03-01T23:21:15;15.80;;;8.50;;
23712;SDS011;12035;49.978;8.298;2023-03-01T23:26:15;14.85;;;7.47;;
23712;SDS011;12035;49.978;8.298;2023-03-01T23:31:16;13.98;;;7.82;;
23712;SDS011;12035;49.978;8.298;2023-03-01T23:36:15;14.23;;;7.65;;
23712;SDS011;12035;49.978;8.298;2023-03-01T23:41:15;14.05;;;7.80;;
23712;SDS011;12035;49.978;8.298;2023-03-01T23:46:17;13.48;;;7.72;;
23712;SDS011;12035;49.978;8.298;2023-03-01T23:51:16;15.80;;;7.90;;
23712;SDS011;12035;49.978;8.298;2023-03-01T23:56:14;14.15;;;7.50;;
